sensor_id;sensor_type;location;lat;lon;timestamp;pressure;altitude;pressure_sealevel;temperature;humidity
50774;BME280;36745;48.544;8.918;2022-10-22T00:01:33;97169.34;;;13.22;100.00
50774;BME280;36745;48.544;8.918;2022-10-22T00:04:55;97162.56;;;13.23;100.00
50774;BME280;36745;48.544;8.918;2022-10-22T00:08:16;97163.03;;;13.21;100.00
50774;BME280;36745;48.544;8.918;2022-10-22T00:11:38;97170.88;;;13.23;100.00
50774;BME280;36745;48.544;8.918;2022-10-22T00:14:59;97169.03;;;13.20;100.00
50774;BME280;36745;48.544;8.918;2022-10-22T00:18:21;97172.91;;;13.22;100.00
50774;BME280;36745;48.544;8.918;2022-10-22T00:21:42;97179.19;;;13.23;100.00
50774;BME280;36745;48.544;8.918;2022-10-22T00:25:03;97183.50;;;13.24;100.00
50774;BME280;36745;48.544;8.918;2022-10-22T00:28:25;97176.72;;;13.25;100.00
50774;BME280;36745;48.544;8.918;2022-10-22T00:31:46;97169.66;;;13.24;100.00
50774;BME280;36745;48.544;8.918;2022-10-22T00:35:09;97167.50;;;13.19;100.00
50774;BME280;36745;48.544;8.918;2022-10-22T00:38:31;97182.09;;;13.19;100.00
50774;BME280;36745;48.544;8.918;2022-10-22T00:41:55;97183.50;;;13.24;100.00
50774;BME280;36745;48.544;8.918;2022-10-22T00:45:23;97172.13;;;13.22;100.00
50774;BME280;36745;48.544;8.918;2022-10-22T00:48:45;97173.97;;;13.16;100.00
50774;BME280;36745;48.544;8.918;2022-10-22T00:52:06;97164.44;;;13.17;100.00
50774;BME280;36745;48.544;8.918;2022-10-22T00:55:28;97164.69;;;13.10;100.00
50774;BME280;36745;48.544;8.918;2022-10-22T00:58:56;97180.09;;;13.11;100.00
50774;BME280;36745;48.544;8.918;2022-10-22T01:02:18;97186.22;;;13.06;100.00
50774;BME280;36745;48.544;8.918;2022-10-22T01:05:45;97189.28;;;13.08;100.00
50774;BME280;36745;48.544;8.918;2022-10-22T01:12:53;97185.59;;;13.01;100.00
50774;BME280;36745;48.544;8.918;2022-10-22T01:16:29;97176.22;;;12.99;100.00
50774;BME280;36745;48.544;8.918;2022-10-22T01:20:03;97175.44;;;12.98;100.00
50774;BME280;36745;48.544;8.918;2022-10-22T01:27:19;97164.38;;;12.98;100.00
50774;BME280;36745;48.544;8.918;2022-10-22T01:30:43;97165.78;;;12.94;100.00
50774;BME280;36745;48.544;8.918;2022-10-22T01:34:07;97152.06;;;12.90;100.00
50774;BME280;36745;48.544;8.918;2022-10-22T01:37:32;97153.00;;;12.87;100.00
50774;BME280;36745;48.544;8.918;2022-10-22T01:40:55;97150.69;;;12.86;100.00
50774;BME280;36745;48.544;8.918;2022-10-22T01:51:31;97119.81;;;12.87;100.00
50774;BME280;36745;48.544;8.918;2022-10-22T01:55:22;97126.28;;;12.84;100.00
50774;BME280;36745;48.544;8.918;2022-10-22T01:59:10;97153.94;;;12.84;100.00
50774;BME280;36745;48.544;8.918;2022-10-22T02:06:03;97178.81;;;12.84;100.00
50774;BME280;36745;48.544;8.918;2022-10-22T02:09:27;97175.13;;;12.87;100.00
50774;BME280;36745;48.544;8.918;2022-10-22T02:12:52;97178.50;;;12.82;100.00
50774;BME280;36745;48.544;8.918;2022-10-22T02:16:21;97184.97;;;12.79;100.00
50774;BME280;36745;48.544;8.918;2022-10-22T02:19:56;97192.31;;;12.73;100.00
50774;BME280;36745;48.544;8.918;2022-10-22T02:23:17;97170.19;;;12.73;100.00
50774;BME280;36745;48.544;8.918;2022-10-22T02:27:01;97183.56;;;12.75;100.00
50774;BME280;36745;48.544;8.918;2022-10-22T02:30:25;97186.03;;;12.73;100.00
50774;BME280;36745;48.544;8.918;2022-10-22T02:33:50;97192.00;;;12.80;100.00
50774;BME280;36745;48.544;8.918;2022-10-22T02:37:12;97187.72;;;12.79;100.00
50774;BME280;36745;48.544;8.918;2022-10-22T02:40:34;97186.47;;;12.80;100.00
50774;BME280;36745;48.544;8.918;2022-10-22T02:43:55;97190.50;;;12.79;100.00
50774;BME280;36745;48.544;8.918;2022-10-22T02:47:16;97199.09;;;12.81;100.00
50774;BME280;36745;48.544;8.918;2022-10-22T02:50:38;97211.38;;;12.80;100.00
50774;BME280;36745;48.544;8.918;2022-10-22T02:53:59;97196.03;;;12.79;100.00
50774;BME280;36745;48.544;8.918;2022-10-22T02:57:20;97197.88;;;12.82;100.00
50774;BME280;36745;48.544;8.918;2022-10-22T03:00:41;97193.56;;;12.81;100.00
50774;BME280;36745;48.544;8.918;2022-10-22T03:04:03;97181.88;;;12.86;100.00
50774;BME280;36745;48.544;8.918;2022-10-22T03:07:25;97161.13;;;12.82;100.00
50774;BME280;36745;48.544;8.918;2022-10-22T03:10:46;97160.22;;;12.85;100.00
50774;BME280;36745;48.544;8.918;2022-10-22T03:14:08;97165.00;;;12.84;100.00
50774;BME280;36745;48.544;8.918;2022-10-22T03:17:29;97151.00;;;12.79;100.00
50774;BME280;36745;48.544;8.918;2022-10-22T03:24:38;97145.47;;;12.79;100.00
50774;BME280;36745;48.544;8.918;2022-10-22T03:28:06;97155.75;;;12.78;100.00
50774;BME280;36745;48.544;8.918;2022-10-22T03:31:29;97144.53;;;12.82;100.00
50774;BME280;36745;48.544;8.918;2022-10-22T03:34:50;97158.81;;;12.80;100.00
50774;BME280;36745;48.544;8.918;2022-10-22T03:38:12;97164.50;;;12.77;100.00
50774;BME280;36745;48.544;8.918;2022-10-22T03:41:34;97161.91;;;12.73;100.00
50774;BME280;36745;48.544;8.918;2022-10-22T03:44:56;97173.56;;;12.68;100.00
50774;BME280;36745;48.544;8.918;2022-10-22T03:48:17;97185.53;;;12.65;100.00
50774;BME280;36745;48.544;8.918;2022-10-22T03:51:39;97172.94;;;12.64;100.00
50774;BME280;36745;48.544;8.918;2022-10-22T03:55:00;97164.94;;;12.57;100.00
50774;BME280;36745;48.544;8.918;2022-10-22T03:58:21;97152.78;;;12.54;100.00
50774;BME280;36745;48.544;8.918;2022-10-22T04:01:42;97170.16;;;12.55;100.00
50774;BME280;36745;48.544;8.918;2022-10-22T04:05:04;97177.66;;;12.45;100.00
50774;BME280;36745;48.544;8.918;2022-10-22T04:08:25;97179.31;;;12.43;100.00
50774;BME280;36745;48.544;8.918;2022-10-22T04:11:46;97183.00;;;12.40;100.00
50774;BME280;36745;48.544;8.918;2022-10-22T04:15:08;97182.56;;;12.41;100.00
50774;BME280;36745;48.544;8.918;2022-10-22T04:18:29;97181.28;;;12.33;100.00
50774;BME280;36745;48.544;8.918;2022-10-22T04:21:50;97185.69;;;12.22;100.00
50774;BME280;36745;48.544;8.918;2022-10-22T04:25:12;97182.63;;;12.19;100.00
50774;BME280;36745;48.544;8.918;2022-10-22T04:28:34;97186.59;;;12.18;100.00
50774;BME280;36745;48.544;8.918;2022-10-22T04:31:55;97199.75;;;12.05;100.00
50774;BME280;36745;48.544;8.918;2022-10-22T04:35:16;97197.16;;;12.11;100.00
50774;BME280;36745;48.544;8.918;2022-10-22T04:38:38;97196.38;;;12.10;100.00
50774;BME280;36745;48.544;8.918;2022-10-22T04:41:59;97203.13;;;12.09;100.00
50774;BME280;36745;48.544;8.918;2022-10-22T04:45:21;97198.25;;;12.13;100.00
50774;BME280;36745;48.544;8.918;2022-10-22T04:48:43;97200.25;;;12.13;100.00
50774;BME280;36745;48.544;8.918;2022-10-22T04:52:05;97205.00;;;12.12;100.00
50774;BME280;36745;48.544;8.918;2022-10-22T04:55:26;97206.53;;;12.13;100.00
50774;BME280;36745;48.544;8.918;2022-10-22T04:58:50;97197.03;;;12.14;100.00
50774;BME280;36745;48.544;8.918;2022-10-22T05:02:11;97200.72;;;12.20;100.00
50774;BME280;36745;48.544;8.918;2022-10-22T05:05:32;97206.25;;;12.20;100.00
50774;BME280;36745;48.544;8.918;2022-10-22T05:08:56;97202.41;;;12.18;100.00
50774;BME280;36745;48.544;8.918;2022-10-22T05:12:18;97204.59;;;12.23;100.00
50774;BME280;36745;48.544;8.918;2022-10-22T05:15:39;97211.94;;;12.17;100.00
50774;BME280;36745;48.544;8.918;2022-10-22T05:19:01;97221.31;;;12.19;100.00
50774;BME280;36745;48.544;8.918;2022-10-22T05:22:22;97228.25;;;12.24;100.00
50774;BME280;36745;48.544;8.918;2022-10-22T05:25:44;97220.75;;;12.34;100.00
50774;BME280;36745;48.544;8.918;2022-10-22T05:29:05;97219.47;;;12.26;100.00
50774;BME280;36745;48.544;8.918;2022-10-22T05:32:27;97216.72;;;12.26;100.00
50774;BME280;36745;48.544;8.918;2022-10-22T05:35:51;97222.91;;;12.30;100.00
50774;BME280;36745;48.544;8.918;2022-10-22T05:39:12;97235.16;;;12.29;100.00
50774;BME280;36745;48.544;8.918;2022-10-22T05:42:33;97247.13;;;12.26;100.00
50774;BME280;36745;48.544;8.918;2022-10-22T05:45:55;97247.72;;;12.20;100.00
50774;BME280;36745;48.544;8.918;2022-10-22T05:49:16;97241.56;;;12.16;100.00
50774;BME280;36745;48.544;8.918;2022-10-22T05:52:37;97257.94;;;12.11;100.00
50774;BME280;36745;48.544;8.918;2022-10-22T05:56:04;97262.41;;;12.08;100.00
50774;BME280;36745;48.544;8.918;2022-10-22T05:59:26;97266.69;;;12.09;100.00
50774;BME280;36745;48.544;8.918;2022-10-22T06:02:50;97269.00;;;12.11;100.00
50774;BME280;36745;48.544;8.918;2022-10-22T06:09:42;97273.91;;;12.07;100.00
50774;BME280;36745;48.544;8.918;2022-10-22T06:13:03;97272.69;;;12.08;100.00
50774;BME280;36745;48.544;8.918;2022-10-22T06:16:28;97280.06;;;12.11;100.00
50774;BME280;36745;48.544;8.918;2022-10-22T06:19:50;97295.09;;;12.10;100.00
50774;BME280;36745;48.544;8.918;2022-10-22T06:23:14;97299.72;;;12.13;100.00
50774;BME280;36745;48.544;8.918;2022-10-22T06:26:35;97300.94;;;12.12;100.00
50774;BME280;36745;48.544;8.918;2022-10-22T06:29:57;97314.75;;;12.12;100.00
50774;BME280;36745;48.544;8.918;2022-10-22T06:33:18;97310.63;;;12.16;100.00
50774;BME280;36745;48.544;8.918;2022-10-22T06:36:39;97308.31;;;12.15;100.00
50774;BME280;36745;48.544;8.918;2022-10-22T06:40:02;97314.94;;;12.17;100.00
50774;BME280;36745;48.544;8.918;2022-10-22T06:43:23;97330.03;;;12.26;100.00
50774;BME280;36745;48.544;8.918;2022-10-22T06:46:47;97329.16;;;12.29;100.00
50774;BME280;36745;48.544;8.918;2022-10-22T06:50:09;97341.16;;;12.35;100.00
50774;BME280;36745;48.544;8.918;2022-10-22T06:53:30;97349.19;;;12.42;100.00
50774;BME280;36745;48.544;8.918;2022-10-22T06:56:52;97349.19;;;12.42;100.00
50774;BME280;36745;48.544;8.918;2022-10-22T07:00:13;97355.63;;;12.39;100.00
50774;BME280;36745;48.544;8.918;2022-10-22T07:03:35;97355.63;;;12.39;100.00
50774;BME280;36745;48.544;8.918;2022-10-22T07:06:56;97347.38;;;12.48;100.00
50774;BME280;36745;48.544;8.918;2022-10-22T07:10:18;97358.44;;;12.48;100.00
50774;BME280;36745;48.544;8.918;2022-10-22T07:13:39;97371.97;;;12.46;100.00
50774;BME280;36745;48.544;8.918;2022-10-22T07:17:01;97362.31;;;12.50;100.00
50774;BME280;36745;48.544;8.918;2022-10-22T07:20:22;97364.47;;;12.55;100.00
50774;BME280;36745;48.544;8.918;2022-10-22T07:23:43;97368.06;;;12.65;100.00
50774;BME280;36745;48.544;8.918;2022-10-22T07:27:05;97370.25;;;12.70;100.00
50774;BME280;36745;48.544;8.918;2022-10-22T07:30:26;97364.44;;;12.77;100.00
50774;BME280;36745;48.544;8.918;2022-10-22T07:33:47;97365.06;;;12.81;100.00
50774;BME280;36745;48.544;8.918;2022-10-22T07:37:09;97370.47;;;12.85;100.00
50774;BME280;36745;48.544;8.918;2022-10-22T07:40:30;97384.47;;;12.90;100.00
50774;BME280;36745;48.544;8.918;2022-10-22T07:43:51;97381.88;;;12.96;100.00
50774;BME280;36745;48.544;8.918;2022-10-22T07:47:13;97384.97;;;12.98;100.00
50774;BME280;36745;48.544;8.918;2022-10-22T07:50:34;97398.38;;;12.99;100.00
50774;BME280;36745;48.544;8.918;2022-10-22T07:53:55;97404.53;;;13.03;100.00
50774;BME280;36745;48.544;8.918;2022-10-22T07:57:16;97405.94;;;13.08;100.00
50774;BME280;36745;48.544;8.918;2022-10-22T08:00:38;97406.59;;;13.12;100.00
50774;BME280;36745;48.544;8.918;2022-10-22T08:03:59;97402.47;;;13.17;100.00
50774;BME280;36745;48.544;8.918;2022-10-22T08:07:20;97411.69;;;13.23;100.00
50774;BME280;36745;48.544;8.918;2022-10-22T08:10:42;97412.03;;;13.25;100.00
50774;BME280;36745;48.544;8.918;2022-10-22T08:14:03;97413.59;;;13.35;100.00
50774;BME280;36745;48.544;8.918;2022-10-22T08:17:24;97406.56;;;13.43;100.00
50774;BME280;36745;48.544;8.918;2022-10-22T08:20:45;97404.59;;;13.53;100.00
50774;BME280;36745;48.544;8.918;2022-10-22T08:24:07;97399.84;;;13.62;100.00
50774;BME280;36745;48.544;8.918;2022-10-22T08:27:28;97413.13;;;13.76;100.00
50774;BME280;36745;48.544;8.918;2022-10-22T08:30:49;97409.56;;;13.85;100.00
50774;BME280;36745;48.544;8.918;2022-10-22T08:34:10;97408.69;;;13.97;100.00
50774;BME280;36745;48.544;8.918;2022-10-22T08:37:32;97411.59;;;14.03;100.00
50774;BME280;36745;48.544;8.918;2022-10-22T08:40:59;97414.38;;;14.12;100.00
50774;BME280;36745;48.544;8.918;2022-10-22T08:51:49;97421.19;;;14.38;100.00
50774;BME280;36745;48.544;8.918;2022-10-22T08:55:13;97416.22;;;14.42;100.00
50774;BME280;36745;48.544;8.918;2022-10-22T08:58:51;97419.66;;;14.46;100.00
50774;BME280;36745;48.544;8.918;2022-10-22T09:02:32;97418.69;;;14.58;100.00
50774;BME280;36745;48.544;8.918;2022-10-22T09:06:07;97413.78;;;14.62;100.00
50774;BME280;36745;48.544;8.918;2022-10-22T09:09:33;97425.47;;;14.66;100.00
50774;BME280;36745;48.544;8.918;2022-10-22T09:12:56;97424.38;;;14.73;100.00
50774;BME280;36745;48.544;8.918;2022-10-22T09:16:33;97435.00;;;14.84;100.00
50774;BME280;36745;48.544;8.918;2022-10-22T09:20:13;97431.25;;;14.96;100.00
50774;BME280;36745;48.544;8.918;2022-10-22T09:27:13;97436.56;;;15.27;100.00
50774;BME280;36745;48.544;8.918;2022-10-22T09:30:37;97435.75;;;15.35;100.00
50774;BME280;36745;48.544;8.918;2022-10-22T09:33:59;97445.75;;;15.42;100.00
50774;BME280;36745;48.544;8.918;2022-10-22T09:37:28;97447.28;;;15.52;100.00
50774;BME280;36745;48.544;8.918;2022-10-22T09:40:50;97446.78;;;15.63;100.00
50774;BME280;36745;48.544;8.918;2022-10-22T09:44:11;97444.00;;;15.63;100.00
50774;BME280;36745;48.544;8.918;2022-10-22T09:47:36;97448.00;;;15.62;100.00
50774;BME280;36745;48.544;8.918;2022-10-22T09:55:01;97451.75;;;15.59;100.00
50774;BME280;36745;48.544;8.918;2022-10-22T09:58:23;97461.50;;;15.78;100.00
50774;BME280;36745;48.544;8.918;2022-10-22T10:01:44;97461.81;;;15.80;100.00
50774;BME280;36745;48.544;8.918;2022-10-22T10:05:07;97458.09;;;15.83;100.00
50774;BME280;36745;48.544;8.918;2022-10-22T10:08:30;97466.31;;;15.77;100.00
50774;BME280;36745;48.544;8.918;2022-10-22T10:27:21;97477.63;;;16.21;100.00
50774;BME280;36745;48.544;8.918;2022-10-22T10:31:11;97483.19;;;16.21;100.00
50774;BME280;36745;48.544;8.918;2022-10-22T10:49:25;97493.66;;;16.26;100.00
50774;BME280;36745;48.544;8.918;2022-10-22T10:53:05;97492.47;;;16.42;100.00
50774;BME280;36745;48.544;8.918;2022-10-22T10:56:55;97484.84;;;16.52;100.00
50774;BME280;36745;48.544;8.918;2022-10-22T11:00:19;97483.41;;;16.56;100.00
50774;BME280;36745;48.544;8.918;2022-10-22T11:04:14;97486.34;;;16.53;100.00
50774;BME280;36745;48.544;8.918;2022-10-22T11:07:45;97486.81;;;16.75;100.00
50774;BME280;36745;48.544;8.918;2022-10-22T11:11:15;97481.28;;;17.63;100.00
50774;BME280;36745;48.544;8.918;2022-10-22T11:18:35;97473.47;;;19.09;100.00
50774;BME280;36745;48.544;8.918;2022-10-22T11:22:43;97470.06;;;19.88;100.00
50774;BME280;36745;48.544;8.918;2022-10-22T11:26:04;97470.94;;;20.05;100.00
50774;BME280;36745;48.544;8.918;2022-10-22T11:29:40;97470.00;;;19.77;100.00
50774;BME280;36745;48.544;8.918;2022-10-22T11:33:18;97477.72;;;19.56;100.00
50774;BME280;36745;48.544;8.918;2022-10-22T11:36:42;97465.22;;;19.88;100.00
50774;BME280;36745;48.544;8.918;2022-10-22T11:40:07;97459.81;;;20.16;99.67
50774;BME280;36745;48.544;8.918;2022-10-22T11:47:23;97463.88;;;20.80;95.88
50774;BME280;36745;48.544;8.918;2022-10-22T11:51:00;97456.34;;;21.25;95.61
50774;BME280;36745;48.544;8.918;2022-10-22T11:54:29;97454.31;;;21.25;93.74
50774;BME280;36745;48.544;8.918;2022-10-22T11:57:56;97453.78;;;21.32;90.75
50774;BME280;36745;48.544;8.918;2022-10-22T12:01:23;97447.66;;;21.73;92.34
50774;BME280;36745;48.544;8.918;2022-10-22T12:04:44;97458.41;;;21.35;87.63
50774;BME280;36745;48.544;8.918;2022-10-22T12:11:40;97452.00;;;22.02;88.08
50774;BME280;36745;48.544;8.918;2022-10-22T12:15:30;97448.00;;;22.44;87.47
50774;BME280;36745;48.544;8.918;2022-10-22T12:19:00;97442.44;;;23.26;84.76
50774;BME280;36745;48.544;8.918;2022-10-22T12:22:26;97442.19;;;23.59;82.93
50774;BME280;36745;48.544;8.918;2022-10-22T12:25:48;97438.84;;;23.31;79.79
50774;BME280;36745;48.544;8.918;2022-10-22T12:29:11;97434.63;;;23.43;78.05
50774;BME280;36745;48.544;8.918;2022-10-22T12:32:36;97424.13;;;23.49;75.25
50774;BME280;36745;48.544;8.918;2022-10-22T12:35:57;97431.03;;;22.77;69.93
50774;BME280;36745;48.544;8.918;2022-10-22T12:39:26;97437.13;;;22.81;70.42
50774;BME280;36745;48.544;8.918;2022-10-22T12:42:50;97433.59;;;22.64;68.23
50774;BME280;36745;48.544;8.918;2022-10-22T12:46:12;97434.09;;;22.68;69.26
50774;BME280;36745;48.544;8.918;2022-10-22T12:49:37;97434.78;;;22.85;67.27
50774;BME280;36745;48.544;8.918;2022-10-22T12:52:59;97429.41;;;22.87;66.81
50774;BME280;36745;48.544;8.918;2022-10-22T12:56:26;97421.34;;;23.08;66.67
50774;BME280;36745;48.544;8.918;2022-10-22T12:59:50;97417.53;;;23.06;64.72
50774;BME280;36745;48.544;8.918;2022-10-22T13:03:25;97424.19;;;23.38;64.58
50774;BME280;36745;48.544;8.918;2022-10-22T13:10:32;97417.84;;;22.50;61.12
50774;BME280;36745;48.544;8.918;2022-10-22T13:14:04;97422.91;;;22.57;62.97
50774;BME280;36745;48.544;8.918;2022-10-22T13:17:40;97414.97;;;22.03;60.50
50774;BME280;36745;48.544;8.918;2022-10-22T13:21:01;97414.44;;;21.94;61.17
50774;BME280;36745;48.544;8.918;2022-10-22T13:24:23;97422.94;;;21.49;60.13
50774;BME280;36745;48.544;8.918;2022-10-22T13:31:13;97414.81;;;21.34;61.97
50774;BME280;36745;48.544;8.918;2022-10-22T13:34:35;97414.00;;;21.01;61.26
50774;BME280;36745;48.544;8.918;2022-10-22T13:37:57;97427.75;;;20.93;61.98
50774;BME280;36745;48.544;8.918;2022-10-22T13:41:27;97429.00;;;20.81;60.99
50774;BME280;36745;48.544;8.918;2022-10-22T13:44:50;97419.03;;;20.69;62.08
50774;BME280;36745;48.544;8.918;2022-10-22T13:48:14;97411.41;;;20.75;62.44
50774;BME280;36745;48.544;8.918;2022-10-22T13:51:36;97413.72;;;20.82;62.46
50774;BME280;36745;48.544;8.918;2022-10-22T13:54:57;97411.91;;;20.79;61.04
50774;BME280;36745;48.544;8.918;2022-10-22T13:58:20;97408.25;;;20.34;60.90
50774;BME280;36745;48.544;8.918;2022-10-22T14:01:44;97414.34;;;20.32;62.09
50774;BME280;36745;48.544;8.918;2022-10-22T14:05:06;97418.88;;;20.24;62.05
50774;BME280;36745;48.544;8.918;2022-10-22T14:08:29;97421.88;;;20.15;61.99
50774;BME280;36745;48.544;8.918;2022-10-22T14:11:50;97409.66;;;20.07;62.32
50774;BME280;36745;48.544;8.918;2022-10-22T14:15:13;97410.41;;;20.07;61.90
50774;BME280;36745;48.544;8.918;2022-10-22T14:18:34;97406.03;;;20.01;62.74
50774;BME280;36745;48.544;8.918;2022-10-22T14:21:56;97409.53;;;19.85;61.87
50774;BME280;36745;48.544;8.918;2022-10-22T14:25:20;97405.09;;;19.67;62.43
50774;BME280;36745;48.544;8.918;2022-10-22T14:28:45;97413.16;;;19.54;62.61
50774;BME280;36745;48.544;8.918;2022-10-22T14:32:21;97410.47;;;19.39;63.08
50774;BME280;36745;48.544;8.918;2022-10-22T14:35:43;97407.59;;;19.28;62.99
50774;BME280;36745;48.544;8.918;2022-10-22T14:39:04;97406.69;;;19.11;62.81
50774;BME280;36745;48.544;8.918;2022-10-22T14:42:29;97414.00;;;19.03;63.28
50774;BME280;36745;48.544;8.918;2022-10-22T14:45:50;97416.19;;;18.93;63.60
50774;BME280;36745;48.544;8.918;2022-10-22T14:49:12;97414.53;;;18.81;63.68
50774;BME280;36745;48.544;8.918;2022-10-22T14:52:33;97416.75;;;18.71;63.99
50774;BME280;36745;48.544;8.918;2022-10-22T14:55:55;97416.91;;;18.62;64.08
50774;BME280;36745;48.544;8.918;2022-10-22T14:59:19;97422.91;;;18.55;64.26
50774;BME280;36745;48.544;8.918;2022-10-22T15:02:40;97427.88;;;18.45;64.71
50774;BME280;36745;48.544;8.918;2022-10-22T15:06:02;97429.06;;;18.39;64.91
50774;BME280;36745;48.544;8.918;2022-10-22T15:09:23;97432.53;;;18.34;65.00
50774;BME280;36745;48.544;8.918;2022-10-22T15:12:45;97432.25;;;18.32;65.46
50774;BME280;36745;48.544;8.918;2022-10-22T15:16:08;97427.38;;;18.27;65.43
50774;BME280;36745;48.544;8.918;2022-10-22T15:19:30;97437.84;;;18.12;65.82
50774;BME280;36745;48.544;8.918;2022-10-22T15:22:52;97431.66;;;18.02;65.83
50774;BME280;36745;48.544;8.918;2022-10-22T15:26:13;97435.41;;;17.99;66.44
50774;BME280;36745;48.544;8.918;2022-10-22T15:29:35;97435.25;;;17.88;66.54
50774;BME280;36745;48.544;8.918;2022-10-22T15:32:56;97433.06;;;17.77;66.99
50774;BME280;36745;48.544;8.918;2022-10-22T15:36:17;97428.88;;;17.67;67.34
50774;BME280;36745;48.544;8.918;2022-10-22T15:39:40;97419.94;;;17.63;67.35
50774;BME280;36745;48.544;8.918;2022-10-22T15:43:01;97423.41;;;17.58;67.97
50774;BME280;36745;48.544;8.918;2022-10-22T15:46:23;97424.03;;;17.33;68.81
50774;BME280;36745;48.544;8.918;2022-10-22T15:49:45;97433.84;;;17.13;69.74
50774;BME280;36745;48.544;8.918;2022-10-22T15:53:07;97434.78;;;16.96;70.44
50774;BME280;36745;48.544;8.918;2022-10-22T15:56:29;97444.38;;;16.80;71.25
50774;BME280;36745;48.544;8.918;2022-10-22T15:59:50;97448.59;;;16.61;71.52
50774;BME280;36745;48.544;8.918;2022-10-22T16:03:12;97449.28;;;16.47;72.37
50774;BME280;36745;48.544;8.918;2022-10-22T16:06:50;97449.00;;;16.30;72.97
50774;BME280;36745;48.544;8.918;2022-10-22T16:10:15;97451.72;;;16.15;73.54
50774;BME280;36745;48.544;8.918;2022-10-22T16:13:36;97449.34;;;15.99;74.15
50774;BME280;36745;48.544;8.918;2022-10-22T16:16:57;97450.94;;;15.91;74.57
50774;BME280;36745;48.544;8.918;2022-10-22T16:20:22;97448.25;;;15.73;75.14
50774;BME280;36745;48.544;8.918;2022-10-22T16:23:43;97444.00;;;15.63;75.65
50774;BME280;36745;48.544;8.918;2022-10-22T16:27:05;97444.66;;;15.48;76.81
50774;BME280;36745;48.544;8.918;2022-10-22T16:30:27;97449.13;;;15.46;76.36
50774;BME280;36745;48.544;8.918;2022-10-22T16:33:48;97452.09;;;15.42;77.48
50774;BME280;36745;48.544;8.918;2022-10-22T16:37:09;97455.50;;;15.37;77.51
50774;BME280;36745;48.544;8.918;2022-10-22T16:40:31;97457.84;;;15.30;77.94
50774;BME280;36745;48.544;8.918;2022-10-22T16:43:54;97452.16;;;15.24;78.71
50774;BME280;36745;48.544;8.918;2022-10-22T16:47:15;97469.13;;;15.17;79.33
50774;BME280;36745;48.544;8.918;2022-10-22T16:50:38;97464.84;;;15.07;79.50
50774;BME280;36745;48.544;8.918;2022-10-22T16:53:59;97469.66;;;14.97;80.10
50774;BME280;36745;48.544;8.918;2022-10-22T16:57:20;97476.00;;;14.89;80.83
50774;BME280;36745;48.544;8.918;2022-10-22T17:00:42;97471.09;;;14.84;81.29
50774;BME280;36745;48.544;8.918;2022-10-22T17:04:03;97469.38;;;14.77;81.37
50774;BME280;36745;48.544;8.918;2022-10-22T17:07:24;97479.25;;;14.69;82.15
50774;BME280;36745;48.544;8.918;2022-10-22T17:10:46;97475.56;;;14.54;82.60
50774;BME280;36745;48.544;8.918;2022-10-22T17:14:08;97476.34;;;14.45;82.81
50774;BME280;36745;48.544;8.918;2022-10-22T17:17:29;97479.75;;;14.40;83.32
50774;BME280;36745;48.544;8.918;2022-10-22T17:20:51;97469.22;;;14.26;83.84
50774;BME280;36745;48.544;8.918;2022-10-22T17:24:12;97495.84;;;14.14;83.97
50774;BME280;36745;48.544;8.918;2022-10-22T17:27:34;97493.81;;;14.06;84.08
50774;BME280;36745;48.544;8.918;2022-10-22T17:31:04;97484.88;;;13.93;84.86
50774;BME280;36745;48.544;8.918;2022-10-22T17:34:26;97487.00;;;13.79;85.02
50774;BME280;36745;48.544;8.918;2022-10-22T17:37:50;97491.88;;;13.66;84.60
50774;BME280;36745;48.544;8.918;2022-10-22T17:41:16;97493.66;;;13.51;85.96
50774;BME280;36745;48.544;8.918;2022-10-22T17:44:38;97495.19;;;13.43;86.44
50774;BME280;36745;48.544;8.918;2022-10-22T17:48:00;97504.66;;;13.33;87.00
50774;BME280;36745;48.544;8.918;2022-10-22T17:51:26;97517.56;;;13.27;86.13
50774;BME280;36745;48.544;8.918;2022-10-22T17:54:48;97513.44;;;13.10;86.76
50774;BME280;36745;48.544;8.918;2022-10-22T17:58:10;97515.22;;;13.03;88.24
50774;BME280;36745;48.544;8.918;2022-10-22T18:01:38;97512.03;;;13.05;88.79
50774;BME280;36745;48.544;8.918;2022-10-22T18:05:05;97515.38;;;13.00;89.13
50774;BME280;36745;48.544;8.918;2022-10-22T18:08:26;97510.88;;;12.93;89.14
50774;BME280;36745;48.544;8.918;2022-10-22T18:11:49;97522.50;;;12.88;89.83
50774;BME280;36745;48.544;8.918;2022-10-22T18:15:11;97504.16;;;12.82;89.43
50774;BME280;36745;48.544;8.918;2022-10-22T18:18:33;97511.06;;;12.77;89.80
50774;BME280;36745;48.544;8.918;2022-10-22T18:21:55;97508.53;;;12.70;89.59
50774;BME280;36745;48.544;8.918;2022-10-22T18:25:16;97512.41;;;12.51;89.82
50774;BME280;36745;48.544;8.918;2022-10-22T18:28:38;97509.16;;;12.52;91.38
50774;BME280;36745;48.544;8.918;2022-10-22T18:31:59;97512.41;;;12.51;91.32
50774;BME280;36745;48.544;8.918;2022-10-22T18:35:20;97512.50;;;12.47;91.36
50774;BME280;36745;48.544;8.918;2022-10-22T18:38:42;97516.59;;;12.43;91.17
50774;BME280;36745;48.544;8.918;2022-10-22T18:42:03;97521.50;;;12.39;90.97
50774;BME280;36745;48.544;8.918;2022-10-22T18:45:27;97512.22;;;12.33;91.35
50774;BME280;36745;48.544;8.918;2022-10-22T18:48:50;97508.59;;;12.23;91.05
50774;BME280;36745;48.544;8.918;2022-10-22T18:52:12;97514.16;;;12.10;91.42
50774;BME280;36745;48.544;8.918;2022-10-22T18:55:37;97520.50;;;11.98;91.68
50774;BME280;36745;48.544;8.918;2022-10-22T18:58:58;97521.03;;;11.93;92.78
50774;BME280;36745;48.544;8.918;2022-10-22T19:02:20;97527.25;;;11.97;92.94
50774;BME280;36745;48.544;8.918;2022-10-22T19:05:46;97524.69;;;11.90;92.14
50774;BME280;36745;48.544;8.918;2022-10-22T19:09:07;97522.84;;;11.87;91.22
50774;BME280;36745;48.544;8.918;2022-10-22T19:12:29;97517.88;;;11.82;92.11
50774;BME280;36745;48.544;8.918;2022-10-22T19:15:51;97525.16;;;11.76;91.72
50774;BME280;36745;48.544;8.918;2022-10-22T19:19:16;97528.38;;;11.74;92.65
50774;BME280;36745;48.544;8.918;2022-10-22T19:22:38;97520.38;;;11.64;92.96